sensor_id;sensor_type;location;lat;lon;timestamp;P1;durP1;ratioP1;P2;durP2;ratioP2
26780;SDS011;14366;49.184;8.054;2023-12-04T00:01:43;16.27;;;9.37;;
26780;SDS011;14366;49.184;8.054;2023-12-04T00:07:18;15.63;;;9.17;;
26780;SDS011;14366;49.184;8.054;2023-12-04T00:17:41;14.15;;;8.65;;
26780;SDS011;14366;49.184;8.054;2023-12-04T00:28:18;14.53;;;9.10;;
26780;SDS011;14366;49.184;8.054;2023-12-04T00:38:57;16.47;;;8.97;;
26780;SDS011;14366;49.184;8.054;2023-12-04T00:44:31;14.10;;;8.90;;
26780;SDS011;14366;49.184;8.054;2023-12-04T00:50:07;12.90;;;8.80;;
26780;SDS011;14366;49.184;8.054;2023-12-04T00:55:44;14.55;;;8.90;;
26780;SDS011;14366;49.184;8.054;2023-12-04T01:01:19;14.83;;;9.27;;
26780;SDS011;14366;49.184;8.054;2023-12-04T01:06:40;16.75;;;9.45;;
26780;SDS011;14366;49.184;8.054;2023-12-04T01:12:16;14.47;;;9.23;;
26780;SDS011;14366;49.184;8.054;2023-12-04T01:17:51;15.20;;;9.33;;
26780;SDS011;14366;49.184;8.054;2023-12-04T01:23:26;15.00;;;9.75;;
26780;SDS011;14366;49.184;8.054;2023-12-04T01:29:02;14.00;;;9.60;;
26780;SDS011;14366;49.184;8.054;2023-12-04T01:34:37;15.90;;;9.30;;
26780;SDS011;14366;49.184;8.054;2023-12-04T01:40:13;14.53;;;9.13;;
26780;SDS011;14366;49.184;8.054;2023-12-04T01:45:49;14.60;;;8.95;;
26780;SDS011;14366;49.184;8.054;2023-12-04T01:51:25;13.90;;;9.97;;
26780;SDS011;14366;49.184;8.054;2023-12-04T01:57:01;13.20;;;8.83;;
26780;SDS011;14366;49.184;8.054;2023-12-04T02:02:37;14.50;;;9.20;;
26780;SDS011;14366;49.184;8.054;2023-12-04T02:08:13;14.35;;;9.10;;
26780;SDS011;14366;49.184;8.054;2023-12-04T02:13:45;18.05;;;10.05;;
26780;SDS011;14366;49.184;8.054;2023-12-04T02:19:21;15.77;;;9.83;;
26780;SDS011;14366;49.184;8.054;2023-12-04T02:24:57;15.60;;;9.70;;
26780;SDS011;14366;49.184;8.054;2023-12-04T02:30:29;14.60;;;10.17;;
26780;SDS011;14366;49.184;8.054;2023-12-04T02:36:04;14.33;;;9.83;;
26780;SDS011;14366;49.184;8.054;2023-12-04T02:41:41;15.30;;;10.20;;
26780;SDS011;14366;49.184;8.054;2023-12-04T02:47:16;14.33;;;9.47;;
26780;SDS011;14366;49.184;8.054;2023-12-04T02:52:48;14.90;;;9.47;;
26780;SDS011;14366;49.184;8.054;2023-12-04T02:58:36;15.85;;;10.57;;
26780;SDS011;14366;49.184;8.054;2023-12-04T03:04:12;15.80;;;10.06;;
26780;SDS011;14366;49.184;8.054;2023-12-04T03:09:47;14.90;;;10.07;;
26780;SDS011;14366;49.184;8.054;2023-12-04T03:15:08;13.90;;;9.50;;
26780;SDS011;14366;49.184;8.054;2023-12-04T03:20:44;14.57;;;10.13;;
26780;SDS011;14366;49.184;8.054;2023-12-04T03:26:19;16.13;;;10.37;;
26780;SDS011;14366;49.184;8.054;2023-12-04T03:31:55;16.05;;;9.85;;
26780;SDS011;14366;49.184;8.054;2023-12-04T03:37:31;14.33;;;10.43;;
26780;SDS011;14366;49.184;8.054;2023-12-04T03:42:52;12.47;;;9.37;;
26780;SDS011;14366;49.184;8.054;2023-12-04T03:48:29;19.30;;;10.47;;
26780;SDS011;14366;49.184;8.054;2023-12-04T03:54:04;14.57;;;9.97;;
26780;SDS011;14366;49.184;8.054;2023-12-04T03:59:39;13.45;;;9.50;;
26780;SDS011;14366;49.184;8.054;2023-12-04T04:05:15;16.47;;;10.13;;
26780;SDS011;14366;49.184;8.054;2023-12-04T04:10:51;14.80;;;9.80;;
26780;SDS011;14366;49.184;8.054;2023-12-04T04:16:13;13.67;;;9.47;;
26780;SDS011;14366;49.184;8.054;2023-12-04T04:21:49;13.20;;;9.47;;
26780;SDS011;14366;49.184;8.054;2023-12-04T04:27:25;13.53;;;9.47;;
26780;SDS011;14366;49.184;8.054;2023-12-04T04:33:00;15.00;;;9.43;;
26780;SDS011;14366;49.184;8.054;2023-12-04T04:38:21;12.95;;;9.15;;
26780;SDS011;14366;49.184;8.054;2023-12-04T04:43:57;13.27;;;8.82;;
26780;SDS011;14366;49.184;8.054;2023-12-04T04:49:32;12.67;;;9.10;;
26780;SDS011;14366;49.184;8.054;2023-12-04T04:55:09;13.03;;;9.03;;
26780;SDS011;14366;49.184;8.054;2023-12-04T05:05:48;12.20;;;8.37;;
26780;SDS011;14366;49.184;8.054;2023-12-04T05:16:28;14.60;;;8.60;;
26780;SDS011;14366;49.184;8.054;2023-12-04T05:22:03;13.28;;;8.88;;
26780;SDS011;14366;49.184;8.054;2023-12-04T05:32:27;13.05;;;8.65;;
26780;SDS011;14366;49.184;8.054;2023-12-04T05:38:02;13.40;;;8.50;;
26780;SDS011;14366;49.184;8.054;2023-12-04T05:43:35;13.50;;;8.63;;
26780;SDS011;14366;49.184;8.054;2023-12-04T05:48:57;16.17;;;9.30;;
26780;SDS011;14366;49.184;8.054;2023-12-04T05:54:32;14.20;;;8.73;;
26780;SDS011;14366;49.184;8.054;2023-12-04T05:59:52;12.93;;;8.63;;
26780;SDS011;14366;49.184;8.054;2023-12-04T06:05:15;13.20;;;8.67;;
26780;SDS011;14366;49.184;8.054;2023-12-04T06:10:50;12.50;;;8.37;;
26780;SDS011;14366;49.184;8.054;2023-12-04T06:16:25;12.35;;;8.30;;
26780;SDS011;14366;49.184;8.054;2023-12-04T06:22:02;12.27;;;8.40;;
26780;SDS011;14366;49.184;8.054;2023-12-04T06:27:38;12.87;;;8.77;;
26780;SDS011;14366;49.184;8.054;2023-12-04T06:33:14;11.97;;;8.27;;
26780;SDS011;14366;49.184;8.054;2023-12-04T06:38:36;14.82;;;9.18;;
26780;SDS011;14366;49.184;8.054;2023-12-04T06:44:10;13.25;;;9.05;;
26780;SDS011;14366;49.184;8.054;2023-12-04T06:49:32;14.07;;;9.27;;
26780;SDS011;14366;49.184;8.054;2023-12-04T07:00:13;14.65;;;9.75;;
26780;SDS011;14366;49.184;8.054;2023-12-04T07:05:48;15.80;;;10.17;;
26780;SDS011;14366;49.184;8.054;2023-12-04T07:11:24;14.63;;;10.37;;
26780;SDS011;14366;49.184;8.054;2023-12-04T07:16:46;15.97;;;10.17;;
26780;SDS011;14366;49.184;8.054;2023-12-04T07:22:21;14.60;;;10.00;;
26780;SDS011;14366;49.184;8.054;2023-12-04T07:27:42;15.33;;;10.13;;
26780;SDS011;14366;49.184;8.054;2023-12-04T07:33:16;13.50;;;9.40;;
26780;SDS011;14366;49.184;8.054;2023-12-04T07:38:51;16.47;;;10.43;;
26780;SDS011;14366;49.184;8.054;2023-12-04T07:44:26;13.77;;;9.87;;
26780;SDS011;14366;49.184;8.054;2023-12-04T07:50:03;14.80;;;9.93;;
26780;SDS011;14366;49.184;8.054;2023-12-04T07:55:37;13.10;;;8.73;;
26780;SDS011;14366;49.184;8.054;2023-12-04T08:01:13;14.75;;;10.10;;
26780;SDS011;14366;49.184;8.054;2023-12-04T08:06:45;17.73;;;11.57;;
26780;SDS011;14366;49.184;8.054;2023-12-04T08:12:18;13.73;;;9.90;;
26780;SDS011;14366;49.184;8.054;2023-12-04T08:17:35;17.10;;;11.10;;
26780;SDS011;14366;49.184;8.054;2023-12-04T08:22:57;15.80;;;9.80;;
26780;SDS011;14366;49.184;8.054;2023-12-04T08:28:33;14.23;;;9.70;;
26780;SDS011;14366;49.184;8.054;2023-12-04T08:34:08;17.45;;;10.70;;
26780;SDS011;14366;49.184;8.054;2023-12-04T08:39:29;12.03;;;9.23;;
26780;SDS011;14366;49.184;8.054;2023-12-04T08:50:06;14.40;;;9.30;;
26780;SDS011;14366;49.184;8.054;2023-12-04T09:01:03;14.37;;;9.50;;
26780;SDS011;14366;49.184;8.054;2023-12-04T09:06:40;13.45;;;8.55;;
26780;SDS011;14366;49.184;8.054;2023-12-04T09:12:00;12.50;;;9.00;;
26780;SDS011;14366;49.184;8.054;2023-12-04T09:17:22;13.15;;;9.75;;
26780;SDS011;14366;49.184;8.054;2023-12-04T09:22:55;13.60;;;8.93;;
26780;SDS011;14366;49.184;8.054;2023-12-04T09:28:16;13.50;;;9.40;;
26780;SDS011;14366;49.184;8.054;2023-12-04T09:38:57;13.80;;;9.20;;
26780;SDS011;14366;49.184;8.054;2023-12-04T09:49:37;11.70;;;8.30;;
26780;SDS011;14366;49.184;8.054;2023-12-04T09:55:14;11.50;;;8.50;;
26780;SDS011;14366;49.184;8.054;2023-12-04T10:00:49;11.40;;;8.02;;
26780;SDS011;14366;49.184;8.054;2023-12-04T10:06:25;10.87;;;7.80;;
26780;SDS011;14366;49.184;8.054;2023-12-04T10:12:01;10.87;;;7.97;;
26780;SDS011;14366;49.184;8.054;2023-12-04T10:17:33;14.13;;;8.93;;
26780;SDS011;14366;49.184;8.054;2023-12-04T10:23:05;13.57;;;9.20;;
26780;SDS011;14366;49.184;8.054;2023-12-04T10:28:38;12.80;;;9.20;;
26780;SDS011;14366;49.184;8.054;2023-12-04T10:34:08;15.60;;;11.33;;
26780;SDS011;14366;49.184;8.054;2023-12-04T10:39:29;14.03;;;9.43;;
26780;SDS011;14366;49.184;8.054;2023-12-04T10:45:03;12.30;;;8.70;;
26780;SDS011;14366;49.184;8.054;2023-12-04T10:50:35;15.70;;;10.05;;
26780;SDS011;14366;49.184;8.054;2023-12-04T10:56:10;14.00;;;10.80;;
26780;SDS011;14366;49.184;8.054;2023-12-04T11:01:44;12.80;;;9.95;;
26780;SDS011;14366;49.184;8.054;2023-12-04T11:07:15;14.30;;;10.30;;
26780;SDS011;14366;49.184;8.054;2023-12-04T11:12:47;22.43;;;11.73;;
26780;SDS011;14366;49.184;8.054;2023-12-04T11:18:24;14.65;;;10.15;;
26780;SDS011;14366;49.184;8.054;2023-12-04T11:23:59;15.23;;;10.47;;
26780;SDS011;14366;49.184;8.054;2023-12-04T11:29:34;13.13;;;9.23;;
26780;SDS011;14366;49.184;8.054;2023-12-04T11:35:13;12.43;;;8.80;;
26780;SDS011;14366;49.184;8.054;2023-12-04T11:40:45;12.30;;;8.30;;
26780;SDS011;14366;49.184;8.054;2023-12-04T11:46:20;11.60;;;8.60;;
26780;SDS011;14366;49.184;8.054;2023-12-04T11:51:57;15.45;;;9.25;;
26780;SDS011;14366;49.184;8.054;2023-12-04T12:02:35;13.00;;;9.20;;
26780;SDS011;14366;49.184;8.054;2023-12-04T12:08:11;14.00;;;9.85;;
26780;SDS011;14366;49.184;8.054;2023-12-04T12:13:46;14.20;;;10.03;;
26780;SDS011;14366;49.184;8.054;2023-12-04T12:19:07;14.90;;;9.60;;
26780;SDS011;14366;49.184;8.054;2023-12-04T12:24:30;12.80;;;8.90;;
26780;SDS011;14366;49.184;8.054;2023-12-04T12:30:05;14.00;;;9.30;;
26780;SDS011;14366;49.184;8.054;2023-12-04T12:40:41;18.03;;;10.70;;
26780;SDS011;14366;49.184;8.054;2023-12-04T12:46:13;15.35;;;10.60;;
26780;SDS011;14366;49.184;8.054;2023-12-04T12:51:48;16.20;;;10.03;;
26780;SDS011;14366;49.184;8.054;2023-12-04T12:57:11;13.80;;;8.77;;
26780;SDS011;14366;49.184;8.054;2023-12-04T13:02:44;14.80;;;10.57;;
26780;SDS011;14366;49.184;8.054;2023-12-04T13:08:18;15.40;;;9.80;;
26780;SDS011;14366;49.184;8.054;2023-12-04T13:13:52;13.60;;;9.60;;
26780;SDS011;14366;49.184;8.054;2023-12-04T13:19:21;16.40;;;11.10;;
26780;SDS011;14366;49.184;8.054;2023-12-04T13:24:53;15.65;;;10.35;;
26780;SDS011;14366;49.184;8.054;2023-12-04T13:35:16;22.10;;;15.50;;
26780;SDS011;14366;49.184;8.054;2023-12-04T13:45:52;14.53;;;10.37;;
26780;SDS011;14366;49.184;8.054;2023-12-04T13:56:19;12.65;;;9.35;;
26780;SDS011;14366;49.184;8.054;2023-12-04T14:06:59;19.73;;;12.03;;
26780;SDS011;14366;49.184;8.054;2023-12-04T14:12:36;33.77;;;21.30;;
26780;SDS011;14366;49.184;8.054;2023-12-04T14:18:08;18.00;;;12.50;;
26780;SDS011;14366;49.184;8.054;2023-12-04T14:23:29;22.67;;;15.23;;
26780;SDS011;14366;49.184;8.054;2023-12-04T14:28:51;14.45;;;9.30;;
26780;SDS011;14366;49.184;8.054;2023-12-04T14:34:23;13.15;;;8.50;;
26780;SDS011;14366;49.184;8.054;2023-12-04T14:39:44;11.17;;;8.87;;
26780;SDS011;14366;49.184;8.054;2023-12-04T14:45:18;12.03;;;8.40;;
26780;SDS011;14366;49.184;8.054;2023-12-04T14:50:53;13.00;;;8.27;;
26780;SDS011;14366;49.184;8.054;2023-12-04T14:56:28;11.90;;;7.75;;
26780;SDS011;14366;49.184;8.054;2023-12-04T15:02:11;13.37;;;9.10;;
26780;SDS011;14366;49.184;8.054;2023-12-04T15:08:04;13.53;;;9.17;;
26780;SDS011;14366;49.184;8.054;2023-12-04T15:13:46;15.80;;;11.37;;
26780;SDS011;14366;49.184;8.054;2023-12-04T15:19:22;12.95;;;8.70;;
26780;SDS011;14366;49.184;8.054;2023-12-04T15:24:57;11.17;;;7.97;;
26780;SDS011;14366;49.184;8.054;2023-12-04T15:30:18;13.50;;;9.27;;
26780;SDS011;14366;49.184;8.054;2023-12-04T15:35:39;13.07;;;9.23;;
26780;SDS011;14366;49.184;8.054;2023-12-04T15:41:12;12.15;;;9.30;;
26780;SDS011;14366;49.184;8.054;2023-12-04T15:46:33;12.10;;;8.50;;
26780;SDS011;14366;49.184;8.054;2023-12-04T15:51:54;11.70;;;8.90;;
26780;SDS011;14366;49.184;8.054;2023-12-04T15:57:29;13.40;;;9.15;;
26780;SDS011;14366;49.184;8.054;2023-12-04T16:02:49;15.57;;;10.80;;
26780;SDS011;14366;49.184;8.054;2023-12-04T16:08:22;20.90;;;12.80;;
26780;SDS011;14366;49.184;8.054;2023-12-04T16:13:57;21.00;;;12.60;;
26780;SDS011;14366;49.184;8.054;2023-12-04T16:19:18;14.17;;;9.80;;
26780;SDS011;14366;49.184;8.054;2023-12-04T16:24:51;13.80;;;10.15;;
26780;SDS011;14366;49.184;8.054;2023-12-04T16:30:21;15.25;;;10.18;;
26780;SDS011;14366;49.184;8.054;2023-12-04T16:35:42;15.37;;;11.10;;
26780;SDS011;14366;49.184;8.054;2023-12-04T16:41:15;44.47;;;26.13;;
26780;SDS011;14366;49.184;8.054;2023-12-04T16:46:45;23.55;;;15.00;;
26780;SDS011;14366;49.184;8.054;2023-12-04T16:52:20;18.20;;;12.50;;
26780;SDS011;14366;49.184;8.054;2023-12-04T16:57:53;12.53;;;9.53;;
26780;SDS011;14366;49.184;8.054;2023-12-04T17:03:26;19.37;;;12.53;;
26780;SDS011;14366;49.184;8.054;2023-12-04T17:08:43;22.15;;;14.05;;
26780;SDS011;14366;49.184;8.054;2023-12-04T17:14:19;12.20;;;9.30;;
26780;SDS011;14366;49.184;8.054;2023-12-04T17:19:51;17.53;;;11.07;;
26780;SDS011;14366;49.184;8.054;2023-12-04T17:25:26;18.00;;;9.73;;
26780;SDS011;14366;49.184;8.054;2023-12-04T17:31:02;13.93;;;9.93;;
26780;SDS011;14366;49.184;8.054;2023-12-04T17:36:35;20.35;;;12.60;;
26780;SDS011;14366;49.184;8.054;2023-12-04T17:42:10;18.05;;;10.80;;
26780;SDS011;14366;49.184;8.054;2023-12-04T17:47:32;15.50;;;10.37;;
26780;SDS011;14366;49.184;8.054;2023-12-04T17:53:07;15.20;;;10.77;;
26780;SDS011;14366;49.184;8.054;2023-12-04T17:58:42;18.23;;;10.97;;
26780;SDS011;14366;49.184;8.054;2023-12-04T18:04:03;47.70;;;26.75;;
26780;SDS011;14366;49.184;8.054;2023-12-04T18:09:38;20.70;;;13.15;;
26780;SDS011;14366;49.184;8.054;2023-12-04T18:20:18;14.50;;;10.30;;
26780;SDS011;14366;49.184;8.054;2023-12-04T18:25:53;17.90;;;9.90;;
26780;SDS011;14366;49.184;8.054;2023-12-04T18:31:15;16.83;;;10.23;;
26780;SDS011;14366;49.184;8.054;2023-12-04T18:41:42;15.17;;;9.60;;
26780;SDS011;14366;49.184;8.054;2023-12-04T18:47:17;13.60;;;10.00;;
26780;SDS011;14366;49.184;8.054;2023-12-04T18:52:49;15.67;;;11.50;;
26780;SDS011;14366;49.184;8.054;2023-12-04T18:58:11;19.50;;;11.60;;
26780;SDS011;14366;49.184;8.054;2023-12-04T19:03:41;15.40;;;10.70;;
26780;SDS011;14366;49.184;8.054;2023-12-04T19:09:13;17.27;;;12.13;;
26780;SDS011;14366;49.184;8.054;2023-12-04T19:14:33;16.73;;;11.77;;
26780;SDS011;14366;49.184;8.054;2023-12-04T19:20:02;17.13;;;12.37;;
26780;SDS011;14366;49.184;8.054;2023-12-04T19:30:41;15.37;;;11.40;;
26780;SDS011;14366;49.184;8.054;2023-12-04T19:36:12;17.97;;;11.33;;
26780;SDS011;14366;49.184;8.054;2023-12-04T19:41:48;16.47;;;11.20;;
26780;SDS011;14366;49.184;8.054;2023-12-04T19:47:10;16.80;;;11.60;;
26780;SDS011;14366;49.184;8.054;2023-12-04T19:52:41;14.40;;;10.67;;
26780;SDS011;14366;49.184;8.054;2023-12-04T19:58:02;17.85;;;12.00;;
26780;SDS011;14366;49.184;8.054;2023-12-04T20:03:36;18.37;;;13.30;;
26780;SDS011;14366;49.184;8.054;2023-12-04T20:14:12;16.55;;;11.95;;
26780;SDS011;14366;49.184;8.054;2023-12-04T20:19:47;18.53;;;12.47;;
26780;SDS011;14366;49.184;8.054;2023-12-04T20:25:36;24.80;;;15.80;;
26780;SDS011;14366;49.184;8.054;2023-12-04T20:30:56;17.57;;;12.20;;
26780;SDS011;14366;49.184;8.054;2023-12-04T20:36:31;16.80;;;12.73;;
26780;SDS011;14366;49.184;8.054;2023-12-04T20:47:26;18.70;;;13.00;;
26780;SDS011;14366;49.184;8.054;2023-12-04T20:52:48;19.70;;;13.40;;
26780;SDS011;14366;49.184;8.054;2023-12-04T20:58:22;23.73;;;14.20;;
26780;SDS011;14366;49.184;8.054;2023-12-04T21:03:42;19.10;;;13.70;;
26780;SDS011;14366;49.184;8.054;2023-12-04T21:09:19;17.40;;;12.30;;
26780;SDS011;14366;49.184;8.054;2023-12-04T21:14:53;18.80;;;13.47;;
26780;SDS011;14366;49.184;8.054;2023-12-04T21:20:29;18.67;;;13.50;;
26780;SDS011;14366;49.184;8.054;2023-12-04T21:25:51;19.47;;;14.40;;
26780;SDS011;14366;49.184;8.054;2023-12-04T21:31:25;19.70;;;14.30;;
26780;SDS011;14366;49.184;8.054;2023-12-04T21:37:01;20.10;;;14.20;;
26780;SDS011;14366;49.184;8.054;2023-12-04T21:47:27;19.90;;;14.43;;
26780;SDS011;14366;49.184;8.054;2023-12-04T21:53:02;22.17;;;16.00;;
26780;SDS011;14366;49.184;8.054;2023-12-04T21:58:38;19.87;;;14.77;;
26780;SDS011;14366;49.184;8.054;2023-12-04T22:09:04;21.30;;;14.47;;
26780;SDS011;14366;49.184;8.054;2023-12-04T22:19:58;23.73;;;16.37;;
26780;SDS011;14366;49.184;8.054;2023-12-04T22:30:24;21.50;;;15.30;;
26780;SDS011;14366;49.184;8.054;2023-12-04T22:35:59;21.40;;;15.10;;
26780;SDS011;14366;49.184;8.054;2023-12-04T22:41:19;23.17;;;15.47;;
26780;SDS011;14366;49.184;8.054;2023-12-04T22:46:41;26.97;;;19.37;;
26780;SDS011;14366;49.184;8.054;2023-12-04T22:52:14;27.73;;;19.83;;
26780;SDS011;14366;49.184;8.054;2023-12-04T22:57:49;23.63;;;16.57;;
26780;SDS011;14366;49.184;8.054;2023-12-04T23:03:25;20.50;;;15.40;;
26780;SDS011;14366;49.184;8.054;2023-12-04T23:09:00;20.60;;;13.87;;
26780;SDS011;14366;49.184;8.054;2023-12-04T23:14:21;22.73;;;14.97;;
26780;SDS011;14366;49.184;8.054;2023-12-04T23:19:57;21.40;;;15.25;;
26780;SDS011;14366;49.184;8.054;2023-12-04T23:25:30;19.83;;;13.30;;
26780;SDS011;14366;49.184;8.054;2023-12-04T23:31:05;19.00;;;13.33;;
26780;SDS011;14366;49.184;8.054;2023-12-04T23:36:25;18.85;;;13.10;;
26780;SDS011;14366;49.184;8.054;2023-12-04T23:42:00;21.23;;;15.13;;
26780;SDS011;14366;49.184;8.054;2023-12-04T23:47:20;18.40;;;14.10;;
26780;SDS011;14366;49.184;8.054;2023-12-04T23:52:42;18.53;;;13.53;;
26780;SDS011;14366;49.184;8.054;2023-12-04T23:58:15;19.80;;;14.25;;
